Gallina — 9VGC4 — position and weather

sailwx.info

Track history (hours):
 
Tides and Currents Weather Stations Pressure Air Temp Water Temp Dewpoint Dewpoint Depression Visibility Wind Speed Wind Dir Waves Ship Positions

Gallina

Last reported at 2018-Apr-17 02:47 UTC. Time now 2018-Apr-26 02:03 UTC.
Position S 16°27' E 119°17'.
Warning: this ship's position is 8 days out of date.

Type: Ship (hazmat cat A). MMSI: 564646000.

Date/timePositionNaut miles runAvg speedWind from/ knotsBaromVisibWave heightAir tempDewpointWater temp
2018-Apr-17 02:47S 16°27' E 119°17'412.7
2018-Apr-17 02:29S 16°30' E 119°14'2314.0
2018-Apr-17 00:52S 16°48' E 118°59'514.4
2018-Apr-17 00:30S 16°52' E 118°56'3814.6
2018-Apr-16 21:55S 17°21' E 118°32'3814.5
2018-Apr-16 19:18S 17°55' E 118°12'3314.5
2018-Apr-16 17:00S 18°24' E 117°55'3314.3
2018-Apr-16 14:42S 18°53' E 117°39'314.0
2018-Apr-16 14:30S 18°55' E 117°38'714.1
2018-Apr-16 13:59S 19°01' E 117°34'714.2
2018-Apr-16 13:30S 19°07' E 117°30'713.8
2018-Apr-16 12:59S 19°13' E 117°26'714.0
2018-Apr-16 12:30S 19°19' E 117°23'714.0
2018-Apr-16 11:59S 19°26' E 117°20'714.0
2018-Apr-16 11:30S 19°31' E 117°15'714.0
2018-Apr-16 11:00S 19°37' E 117°11'714.2
2018-Apr-16 10:29S 19°43' E 117°07'714.2
2018-Apr-16 09:59S 19°50' E 117°03'714.1
2018-Apr-16 09:29S 19°56' E 116°60'714.1
2018-Apr-16 09:00S 19°60' E 116°54'814.9
2018-Apr-16 08:30S 20°04' E 116°47'815.6
2018-Apr-16 08:00S 20°08' E 116°40'612.8
2018-Apr-16 07:30S 20°12' E 116°35'710.3
2018-Apr-16 06:47S 20°19' E 116°31'1 0.1
2018-Apr-15 19:04S 20°20' E 116°30'0 0.0
2018-Apr-15 18:46S 20°20' E 116°30'0 0.0
2018-Apr-15 17:28S 20°20' E 116°30'0 0.0
2018-Apr-15 11:04S 20°20' E 116°30'0 0.3
2018-Apr-15 10:52S 20°20' E 116°30'0 0.0
2018-Apr-15 10:28S 20°20' E 116°30'0 0.0
2018-Apr-15 09:58S 20°20' E 116°30'0 0.0
2018-Apr-15 09:10S 20°20' E 116°30'0 0.1
2018-Apr-15 08:58S 20°20' E 116°30'10 1.1
2018-Apr-14 23:14S 20°11' E 116°35'810.9
2018-Apr-14 22:30S 20°06' E 116°42'714.1
2018-Apr-14 21:59S 20°02' E 116°48'714.7
2018-Apr-14 21:29S 19°55' E 116°47'713.4
2018-Apr-14 20:58S 19°52' E 116°54'612.5
2018-Apr-14 20:30S 19°48' E 116°50'814.2
2018-Apr-14 19:54S 19°40' E 116°53'150 6.7
2018-Apr-13 21:24S 17°21' E 115°52'46 3.0
2018-Apr-13 05:46S 16°48' E 116°25'513.9
2018-Apr-13 05:24S 16°47' E 116°20'914.4
2018-Apr-13 04:47S 16°44' E 116°11'514.4
2018-Apr-13 04:26S 16°42' E 116°06'29 2.7
2018-Apr-12 17:51S 17°02' E 116°28'4712.8
2018-Apr-12 14:12S 16°48' E 115°42'314.8
2018-Apr-12 13:58S 16°49' E 115°38'3914.5
2018-Apr-12 11:18S 17°19' E 116°03'515.7
2018-Apr-12 10:58S 17°23' E 116°07'2515.8
2018-Apr-12 09:24S 17°41' E 116°25'710.4
2018-Apr-12 08:43S 17°44' E 116°19'25 1.7
2018-Apr-11 18:07S 17°37' E 115°54'111.4
2018-Apr-11 18:00S 17°38' E 115°54'59 9.1
2018-Apr-11 11:34S 16°40' E 115°45'36 9.5
2018-Apr-11 07:49S 17°16' E 115°49'512.0
2018-Apr-11 07:25S 17°21' E 115°49'711.9
2018-Apr-11 06:50S 17°28' E 115°49'411.9
2018-Apr-11 06:30S 17°32' E 115°49'611.7
2018-Apr-11 06:00S 17°37' E 115°49'51 2.9
2018-Apr-10 12:35S 16°55' E 115°19'62 9.7
2018-Apr-10 06:10S 17°54' E 115°39'510.2
2018-Apr-10 05:39S 17°54' E 115°45'2 9.9
2018-Apr-10 05:29S 17°54' E 115°46'21 9.9
2018-Apr-10 03:25S 17°55' E 116°08'5 9.8
2018-Apr-10 02:53S 17°55' E 116°13'18 7.5
2018-Apr-10 00:31S 17°41' E 116°25'010.8
2018-Apr-10 00:30S 17°41' E 116°25'87 7.9
2018-Apr-09 13:26S 16°24' E 115°42'54 8.7
2018-Apr-09 07:11S 16°45' E 114°50'1010.9
2018-Apr-09 06:18S 16°55' E 114°49'2411.3
2018-Apr-09 04:12S 17°19' E 114°48'511.1
2018-Apr-09 03:46S 17°23' E 114°48'311.1
2018-Apr-09 03:29S 17°27' E 114°48'511.0
2018-Apr-09 03:00S 17°32' E 114°48'611.0
2018-Apr-09 02:26S 17°38' E 114°48'55 8.9
2018-Apr-08 20:16S 17°55' E 115°42'310.1
2018-Apr-08 20:00S 17°55' E 115°45'3010.0
2018-Apr-08 17:03S 17°56' E 116°16'010.3
2018-Apr-08 17:00S 17°56' E 116°17'5 9.2
2018-Apr-08 16:30S 17°57' E 116°22'510.7
2018-Apr-08 16:00S 18°01' E 116°25'611.0
2018-Apr-08 15:27S 18°06' E 116°29'611.3
2018-Apr-08 14:58S 18°10' E 116°32'1710.9
2018-Apr-08 13:25S 18°24' E 116°42'510.7
2018-Apr-08 12:58S 18°28' E 116°45'510.6
2018-Apr-08 12:29S 18°33' E 116°47'611.2
2018-Apr-08 11:56S 18°39' E 116°48'1711.3
2018-Apr-08 10:27S 18°56' E 116°50'1410.9
2018-Apr-08 09:07S 19°10' E 116°52'311.8
2018-Apr-08 08:52S 19°13' E 116°52'511.5
2018-Apr-08 08:27S 19°18' E 116°52'510.9
2018-Apr-08 08:00S 19°22' E 116°53'611.1
2018-Apr-08 07:28S 19°28' E 116°53'510.9
2018-Apr-08 07:00S 19°34' E 116°53'510.5
2018-Apr-08 06:30S 19°39' E 116°53'510.6
2018-Apr-08 06:00S 19°44' E 116°53'510.4
2018-Apr-08 05:30S 19°49' E 116°53'510.3
2018-Apr-08 05:00S 19°54' E 116°52'510.0
2018-Apr-08 04:30S 19°59' E 116°52'510.3
2018-Apr-08 03:59S 20°03' E 116°48'510.9
2018-Apr-08 03:30S 20°06' E 116°43'711.0
2018-Apr-08 02:54S 20°10' E 116°37'511.0
2018-Apr-08 02:26S 20°14' E 116°35'6 1.5
2018-Apr-07 22:16S 20°20' E 116°32'0 0.0
2018-Apr-07 21:58S 20°20' E 116°32'0 0.0
2018-Apr-07 21:28S 20°20' E 116°32'0 0.0
2018-Apr-07 20:52S 20°20' E 116°32'0 0.0
2018-Apr-07 18:52S 20°20' E 116°32'0 0.0
2018-Apr-07 18:28S 20°20' E 116°32'0 0.0
2018-Apr-07 14:40S 20°20' E 116°32'0 0.0
2018-Apr-07 13:22S 20°20' E 116°32'0 0.1
2018-Apr-07 12:58S 20°20' E 116°32'0 0.1
2018-Apr-07 12:28S 20°20' E 116°32'0 0.2
2018-Apr-07 11:46S 20°20' E 116°32'0 0.4
2018-Apr-07 11:22S 20°20' E 116°31'0 0.1
2018-Apr-07 10:58S 20°20' E 116°31'0 0.1
2018-Apr-07 06:40S 20°20' E 116°32'0 0.0
2018-Apr-07 06:28S 20°20' E 116°32'0 0.0
2018-Apr-07 05:52S 20°20' E 116°32'0 0.1
2018-Apr-07 05:16S 20°20' E 116°32'0 0.0
2018-Apr-07 04:46S 20°20' E 116°32'0 0.0
2018-Apr-07 04:22S 20°20' E 116°32'0 0.1
2018-Apr-07 03:46S 20°20' E 116°32'0 0.1
2018-Apr-07 03:22S 20°20' E 116°32'  
Track history (hours):
 
Tides and Currents Weather Stations Pressure Air Temp Water Temp Dewpoint Dewpoint Depression Visibility Wind Speed Wind Dir Waves Ship Positions

Gallina

Last reported at 2018-Apr-17 02:47 UTC. Time now 2018-Apr-26 02:03 UTC.
Position S 16°27' E 119°17'.
Warning: this ship's position is 8 days out of date.

Type: Ship (hazmat cat A). MMSI: 564646000.

Date/timePositionNaut miles runAvg speedWind from/ knotsBaromVisibWave heightAir tempDewpointWater temp
2018-Apr-17 02:47S 16°27' E 119°17'412.7
2018-Apr-17 02:29S 16°30' E 119°14'2314.0
2018-Apr-17 00:52S 16°48' E 118°59'514.4
2018-Apr-17 00:30S 16°52' E 118°56'3814.6
2018-Apr-16 21:55S 17°21' E 118°32'3814.5
2018-Apr-16 19:18S 17°55' E 118°12'3314.5
2018-Apr-16 17:00S 18°24' E 117°55'3314.3
2018-Apr-16 14:42S 18°53' E 117°39'314.0
2018-Apr-16 14:30S 18°55' E 117°38'714.1
2018-Apr-16 13:59S 19°01' E 117°34'714.2
2018-Apr-16 13:30S 19°07' E 117°30'713.8
2018-Apr-16 12:59S 19°13' E 117°26'714.0
2018-Apr-16 12:30S 19°19' E 117°23'714.0
2018-Apr-16 11:59S 19°26' E 117°20'714.0
2018-Apr-16 11:30S 19°31' E 117°15'714.0
2018-Apr-16 11:00S 19°37' E 117°11'714.2
2018-Apr-16 10:29S 19°43' E 117°07'714.2
2018-Apr-16 09:59S 19°50' E 117°03'714.1
2018-Apr-16 09:29S 19°56' E 116°60'714.1
2018-Apr-16 09:00S 19°60' E 116°54'814.9
2018-Apr-16 08:30S 20°04' E 116°47'815.6
2018-Apr-16 08:00S 20°08' E 116°40'612.8
2018-Apr-16 07:30S 20°12' E 116°35'710.3
2018-Apr-16 06:47S 20°19' E 116°31'1 0.1
2018-Apr-15 19:04S 20°20' E 116°30'0 0.0
2018-Apr-15 18:46S 20°20' E 116°30'0 0.0
2018-Apr-15 17:28S 20°20' E 116°30'0 0.0
2018-Apr-15 11:04S 20°20' E 116°30'0 0.3
2018-Apr-15 10:52S 20°20' E 116°30'0 0.0
2018-Apr-15 10:28S 20°20' E 116°30'0 0.0
2018-Apr-15 09:58S 20°20' E 116°30'0 0.0
2018-Apr-15 09:10S 20°20' E 116°30'0 0.1
2018-Apr-15 08:58S 20°20' E 116°30'10 1.1
2018-Apr-14 23:14S 20°11' E 116°35'810.9
2018-Apr-14 22:30S 20°06' E 116°42'714.1
2018-Apr-14 21:59S 20°02' E 116°48'714.7
2018-Apr-14 21:29S 19°55' E 116°47'713.4
2018-Apr-14 20:58S 19°52' E 116°54'612.5
2018-Apr-14 20:30S 19°48' E 116°50'814.2
2018-Apr-14 19:54S 19°40' E 116°53'150 6.7
2018-Apr-13 21:24S 17°21' E 115°52'46 3.0
2018-Apr-13 05:46S 16°48' E 116°25'513.9
2018-Apr-13 05:24S 16°47' E 116°20'914.4
2018-Apr-13 04:47S 16°44' E 116°11'514.4
2018-Apr-13 04:26S 16°42' E 116°06'29 2.7
2018-Apr-12 17:51S 17°02' E 116°28'4712.8
2018-Apr-12 14:12S 16°48' E 115°42'314.8
2018-Apr-12 13:58S 16°49' E 115°38'3914.5
2018-Apr-12 11:18S 17°19' E 116°03'515.7
2018-Apr-12 10:58S 17°23' E 116°07'2515.8
2018-Apr-12 09:24S 17°41' E 116°25'710.4
2018-Apr-12 08:43S 17°44' E 116°19'25 1.7
2018-Apr-11 18:07S 17°37' E 115°54'111.4
2018-Apr-11 18:00S 17°38' E 115°54'59 9.1
2018-Apr-11 11:34S 16°40' E 115°45'36 9.5
2018-Apr-11 07:49S 17°16' E 115°49'512.0
2018-Apr-11 07:25S 17°21' E 115°49'711.9
2018-Apr-11 06:50S 17°28' E 115°49'411.9
2018-Apr-11 06:30S 17°32' E 115°49'611.7
2018-Apr-11 06:00S 17°37' E 115°49'51 2.9
2018-Apr-10 12:35S 16°55' E 115°19'62 9.7
2018-Apr-10 06:10S 17°54' E 115°39'510.2
2018-Apr-10 05:39S 17°54' E 115°45'2 9.9
2018-Apr-10 05:29S 17°54' E 115°46'21 9.9
2018-Apr-10 03:25S 17°55' E 116°08'5 9.8
2018-Apr-10 02:53S 17°55' E 116°13'18 7.5
2018-Apr-10 00:31S 17°41' E 116°25'010.8
2018-Apr-10 00:30S 17°41' E 116°25'87 7.9
2018-Apr-09 13:26S 16°24' E 115°42'54 8.7
2018-Apr-09 07:11S 16°45' E 114°50'1010.9
2018-Apr-09 06:18S 16°55' E 114°49'2411.3
2018-Apr-09 04:12S 17°19' E 114°48'511.1
2018-Apr-09 03:46S 17°23' E 114°48'311.1
2018-Apr-09 03:29S 17°27' E 114°48'511.0
2018-Apr-09 03:00S 17°32' E 114°48'611.0
2018-Apr-09 02:26S 17°38' E 114°48'55 8.9
2018-Apr-08 20:16S 17°55' E 115°42'310.1
2018-Apr-08 20:00S 17°55' E 115°45'3010.0
2018-Apr-08 17:03S 17°56' E 116°16'010.3
2018-Apr-08 17:00S 17°56' E 116°17'5 9.2
2018-Apr-08 16:30S 17°57' E 116°22'510.7
2018-Apr-08 16:00S 18°01' E 116°25'611.0
2018-Apr-08 15:27S 18°06' E 116°29'611.3
2018-Apr-08 14:58S 18°10' E 116°32'1710.9
2018-Apr-08 13:25S 18°24' E 116°42'510.7
2018-Apr-08 12:58S 18°28' E 116°45'510.6
2018-Apr-08 12:29S 18°33' E 116°47'611.2
2018-Apr-08 11:56S 18°39' E 116°48'1711.3
2018-Apr-08 10:27S 18°56' E 116°50'1410.9
2018-Apr-08 09:07S 19°10' E 116°52'311.8
2018-Apr-08 08:52S 19°13' E 116°52'511.5
2018-Apr-08 08:27S 19°18' E 116°52'510.9
2018-Apr-08 08:00S 19°22' E 116°53'611.1
2018-Apr-08 07:28S 19°28' E 116°53'510.9
2018-Apr-08 07:00S 19°34' E 116°53'510.5
2018-Apr-08 06:30S 19°39' E 116°53'510.6
2018-Apr-08 06:00S 19°44' E 116°53'510.4
2018-Apr-08 05:30S 19°49' E 116°53'510.3
2018-Apr-08 05:00S 19°54' E 116°52'510.0
2018-Apr-08 04:30S 19°59' E 116°52'510.3
2018-Apr-08 03:59S 20°03' E 116°48'510.9
2018-Apr-08 03:30S 20°06' E 116°43'711.0
2018-Apr-08 02:54S 20°10' E 116°37'511.0
2018-Apr-08 02:26S 20°14' E 116°35'6 1.5
2018-Apr-07 22:16S 20°20' E 116°32'0 0.0
2018-Apr-07 21:58S 20°20' E 116°32'0 0.0
2018-Apr-07 21:28S 20°20' E 116°32'0 0.0
2018-Apr-07 20:52S 20°20' E 116°32'0 0.0
2018-Apr-07 18:52S 20°20' E 116°32'0 0.0
2018-Apr-07 18:28S 20°20' E 116°32'0 0.0
2018-Apr-07 14:40S 20°20' E 116°32'0 0.0
2018-Apr-07 13:22S 20°20' E 116°32'0 0.1
2018-Apr-07 12:58S 20°20' E 116°32'0 0.1
2018-Apr-07 12:28S 20°20' E 116°32'0 0.2
2018-Apr-07 11:46S 20°20' E 116°32'0 0.4
2018-Apr-07 11:22S 20°20' E 116°31'0 0.1
2018-Apr-07 10:58S 20°20' E 116°31'0 0.1
2018-Apr-07 06:40S 20°20' E 116°32'0 0.0
2018-Apr-07 06:28S 20°20' E 116°32'0 0.0
2018-Apr-07 05:52S 20°20' E 116°32'0 0.1
2018-Apr-07 05:16S 20°20' E 116°32'0 0.0
2018-Apr-07 04:46S 20°20' E 116°32'0 0.0
2018-Apr-07 04:22S 20°20' E 116°32'0 0.1
2018-Apr-07 03:46S 20°20' E 116°32'0 0.1
2018-Apr-07 03:22S 20°20' E 116°32'  

Dump ship's entire track history